Time;durP1;ratioP1;P1;durP2;ratioP2;P2;SDS_P1;SDS_P2;PMS_P1;PMS_P2;Temp;Humidity;BMP_temperature;BMP_pressure;BME280_temperature;BME280_humidity;BME280_pressure;Samples;Min_cycle;Max_cycle;Signal;HPM_P1;HPM_P2
2022/10/21 00:01:59;;;;;;;26.15;5.22;;;29.40;91.60;;;;;;5027677;28;20056;-55
2022/10/21 00:04:26;;;;;;;17.92;4.40;;;29.40;91.60;;;;;;5027728;28;20034;-54
2022/10/21 00:06:52;;;;;;;14.23;4.30;;;29.40;91.70;;;;;;5027347;28;20317;-56
2022/10/21 00:09:21;;;;;;;13.13;3.70;;;29.40;91.80;;;;;;5027604;28;20033;-56
2022/10/21 00:11:48;;;;;;;16.52;3.33;;;29.40;91.80;;;;;;5027671;28;20085;-56
2022/10/21 00:14:14;;;;;;;10.57;3.65;;;29.40;91.80;;;;;;5027617;28;20207;-54
2022/10/21 00:16:41;;;;;;;11.90;4.40;;;29.40;91.90;;;;;;5028157;28;20042;-57
2022/10/21 00:19:07;;;;;;;11.60;4.25;;;29.30;91.90;;;;;;5027780;28;20253;-57
2022/10/21 00:21:35;;;;;;;9.75;4.38;;;29.30;92.00;;;;;;5027851;28;20030;-55
2022/10/21 00:24:02;;;;;;;12.60;4.63;;;29.30;92.10;;;;;;5027371;28;20321;-55
2022/10/21 00:26:29;;;;;;;10.00;4.95;;;29.30;92.10;;;;;;5027825;28;20054;-56
2022/10/21 00:28:56;;;;;;;13.43;5.32;;;29.30;92.20;;;;;;5027322;28;20021;-55
2022/10/21 00:31:24;;;;;;;12.10;4.60;;;29.30;92.20;;;;;;5027795;28;20033;-57
2022/10/21 00:33:50;;;;;;;12.65;4.57;;;29.20;92.20;;;;;;5027468;28;20022;-58
2022/10/21 00:36:17;;;;;;;8.45;3.75;;;29.20;92.20;;;;;;5027267;28;20213;-55
2022/10/21 00:38:47;;;;;;;5.43;3.72;;;29.20;92.20;;;;;;5027331;28;20030;-55
2022/10/21 00:41:15;;;;;;;10.80;3.85;;;29.20;92.20;;;;;;5027197;28;20021;-53
2022/10/21 00:43:57;;;;;;;10.50;3.90;;;29.20;92.10;;;;;;5027450;28;20109;-56
2022/10/21 00:46:33;;;;;;;9.82;4.00;;;29.20;92.20;;;;;;5026896;28;20033;-56
2022/10/21 00:49:03;;;;;;;8.63;3.80;;;29.20;92.30;;;;;;5026897;28;20057;-54
2022/10/21 00:51:30;;;;;;;10.85;3.78;;;29.20;92.30;;;;;;5027098;28;20025;-55
2022/10/21 00:53:58;;;;;;;10.75;5.40;;;29.20;92.40;;;;;;5027034;28;20037;-55
2022/10/21 00:56:29;;;;;;;17.35;8.60;;;29.20;92.40;;;;;;5024128;28;20062;-55
2022/10/21 00:58:59;;;;;;;17.77;9.80;;;29.20;92.40;;;;;;5032605;28;20060;-61
2022/10/21 01:01:26;;;;;;;26.42;15.88;;;29.10;92.50;;;;;;5021747;28;20041;-53
2022/10/21 01:03:53;;;;;;;27.13;15.77;;;29.10;92.60;;;;;;5015681;28;20105;-56
2022/10/21 01:06:23;;;;;;;18.80;11.07;;;29.00;92.60;;;;;;5024216;28;20026;-53
2022/10/21 01:08:53;;;;;;;19.83;8.95;;;29.00;92.60;;;;;;5016931;28;20034;-54
2022/10/21 01:11:21;;;;;;;12.73;6.07;;;29.00;92.70;;;;;;5024238;28;20028;-53
2022/10/21 01:13:54;;;;;;;13.38;6.15;;;28.90;92.80;;;;;;5026505;28;20060;-53
2022/10/21 01:16:39;;;;;;;12.23;5.78;;;28.90;92.70;;;;;;5023852;28;20253;-50
2022/10/21 01:19:18;;;;;;;10.73;4.90;;;28.90;92.70;;;;;;5019586;28;20044;-56
2022/10/21 01:21:53;;;;;;;13.18;4.72;;;28.90;92.80;;;;;;5015955;28;20035;-55
2022/10/21 01:24:38;;;;;;;11.93;4.93;;;28.80;92.70;;;;;;5021013;28;20034;-60
2022/10/21 01:27:39;;;;;;;13.35;5.05;;;28.80;93.00;;;;;;5019661;28;20058;-52
2022/10/21 01:30:16;;;;;;;12.03;4.73;;;28.80;93.00;;;;;;5007844;28;20119;-57
2022/10/21 01:33:10;;;;;;;9.23;4.80;;;28.80;93.00;;;;;;5025488;28;20029;-58
2022/10/21 01:35:37;;;;;;;9.57;3.72;;;28.80;93.00;;;;;;5026001;28;20030;-55
2022/10/21 01:38:25;;;;;;;12.02;4.47;;;28.80;93.00;;;;;;5025973;28;20056;-59
2022/10/21 01:41:00;;;;;;;8.25;4.45;;;28.80;93.00;;;;;;5026236;28;20040;-49
2022/10/21 01:43:45;;;;;;;6.57;3.58;;;28.70;93.10;;;;;;5025643;28;20021;-49
2022/10/21 01:46:22;;;;;;;10.10;3.47;;;28.70;93.10;;;;;;5025215;28;20084;-53
2022/10/21 01:48:57;;;;;;;12.73;3.97;;;28.70;93.00;;;;;;5024885;28;20052;-52
2022/10/21 01:51:26;;;;;;;16.05;4.05;;;28.70;93.20;;;;;;5025695;28;20021;-55
2022/10/21 01:54:20;;;;;;;8.63;3.55;;;28.70;93.30;;;;;;5019550;28;20321;-56
2022/10/21 01:56:49;;;;;;;8.73;3.47;;;28.60;93.30;;;;;;5025656;28;20033;-54
2022/10/21 01:59:17;;;;;;;11.77;4.18;;;28.60;93.40;;;;;;5024107;28;20026;-53
2022/10/21 02:01:45;;;;;;;13.73;4.25;;;28.60;93.50;;;;;;5015176;28;20039;-53
2022/10/21 02:04:14;;;;;;;11.13;4.28;;;28.60;93.50;;;;;;5023177;28;20384;-55
2022/10/21 02:06:44;;;;;;;8.57;3.33;;;28.60;93.30;;;;;;5021091;28;20340;-57
2022/10/21 02:09:10;;;;;;;8.52;3.72;;;28.60;93.30;;;;;;5025312;28;20033;-54
2022/10/21 02:11:39;;;;;;;9.40;2.88;;;28.60;93.20;;;;;;5020133;28;20072;-55
2022/10/21 02:14:18;;;;;;;6.82;3.33;;;28.60;93.10;;;;;;5021824;28;20306;-52
2022/10/21 02:16:48;;;;;;;9.07;3.20;;;28.60;93.00;;;;;;5022771;28;20234;-55
2022/10/21 02:19:19;;;;;;;7.20;2.90;;;28.60;92.90;;;;;;5019004;28;20379;-54
2022/10/21 02:21:49;;;;;;;6.40;2.35;;;28.60;92.90;;;;;;5023434;28;20141;-54
2022/10/21 02:24:46;;;;;;;7.63;2.85;;;28.60;92.80;;;;;;5049051;28;20265;-55
2022/10/21 02:27:13;;;;;;;5.00;2.38;;;28.60;92.80;;;;;;5017072;28;20226;-54
2022/10/21 02:29:43;;;;;;;6.57;2.58;;;28.60;92.70;;;;;;5023276;28;20022;-54
2022/10/21 02:32:22;;;;;;;7.80;2.60;;;28.60;92.70;;;;;;5022497;28;20080;-54
2022/10/21 02:34:52;;;;;;;5.05;2.40;;;28.60;92.70;;;;;;5018985;28;20178;-54
2022/10/21 02:37:48;;;;;;;6.13;2.47;;;28.60;92.70;;;;;;5020679;28;20034;-57
2022/10/21 02:40:25;;;;;;;7.38;2.28;;;28.60;92.60;;;;;;5011635;28;20041;-58
2022/10/21 02:42:57;;;;;;;6.70;2.63;;;28.60;92.50;;;;;;5025116;28;20026;-56
2022/10/21 02:45:27;;;;;;;3.83;2.15;;;28.60;92.60;;;;;;5024480;28;20075;-55
2022/10/21 02:47:54;;;;;;;6.15;2.60;;;28.50;92.60;;;;;;5023397;28;20035;-55
2022/10/21 02:50:20;;;;;;;5.03;2.70;;;28.50;92.60;;;;;;5022762;28;20037;-54
2022/10/21 02:52:48;;;;;;;5.93;2.47;;;28.50;92.70;;;;;;5018999;28;20030;-55
2022/10/21 02:55:15;;;;;;;5.60;2.92;;;28.50;92.60;;;;;;5024205;28;20060;-55
2022/10/21 02:57:41;;;;;;;8.98;3.00;;;28.50;92.70;;;;;;5019542;28;20026;-54
2022/10/21 03:00:08;;;;;;;7.55;2.80;;;28.50;92.80;;;;;;5022182;28;20038;-55
2022/10/21 03:02:35;;;;;;;8.43;2.80;;;28.50;92.70;;;;;;5022505;28;20300;-55
2022/10/21 03:05:02;;;;;;;5.63;3.03;;;28.50;92.70;;;;;;5022793;28;20048;-57
2022/10/21 03:07:28;;;;;;;8.45;2.88;;;28.50;92.60;;;;;;5023638;28;20380;-57
2022/10/21 03:09:55;;;;;;;6.50;3.10;;;28.50;92.70;;;;;;5022548;28;20018;-54
2022/10/21 03:12:21;;;;;;;7.47;3.22;;;28.50;92.80;;;;;;5023719;28;20026;-59
2022/10/21 03:14:48;;;;;;;7.28;3.00;;;28.50;92.70;;;;;;5024343;28;20029;-56
2022/10/21 03:17:30;;;;;;;8.13;3.38;;;28.50;92.70;;;;;;5023783;28;20026;-60
2022/10/21 03:19:57;;;;;;;5.15;2.80;;;28.40;92.70;;;;;;5022725;28;20084;-60
2022/10/21 03:22:23;;;;;;;6.95;2.90;;;28.50;92.70;;;;;;5022862;28;20038;-56
2022/10/21 03:24:50;;;;;;;3.72;2.60;;;28.40;92.70;;;;;;5022455;28;20022;-51
2022/10/21 03:27:16;;;;;;;4.10;2.67;;;28.40;92.80;;;;;;5018559;28;20053;-61
2022/10/21 03:29:43;;;;;;;8.40;3.10;;;28.40;92.80;;;;;;5021081;28;20030;-56
2022/10/21 03:32:09;;;;;;;7.57;3.90;;;28.40;92.70;;;;;;5022333;28;20218;-55
2022/10/21 03:34:36;;;;;;;16.83;11.10;;;28.40;92.70;;;;;;5022028;28;20030;-56
2022/10/21 03:37:03;;;;;;;9.18;7.88;;;28.40;92.70;;;;;;5024354;28;20089;-55
2022/10/21 03:39:29;;;;;;;9.18;6.32;;;28.40;92.70;;;;;;5023957;28;20186;-54
2022/10/21 03:41:56;;;;;;;13.40;9.63;;;28.40;92.70;;;;;;5024311;28;20077;-55
2022/10/21 03:44:23;;;;;;;11.90;9.50;;;28.40;92.70;;;;;;5024272;28;20246;-61
2022/10/21 03:46:50;;;;;;;13.80;8.70;;;28.40;92.70;;;;;;5023869;28;20038;-60
2022/10/21 03:49:17;;;;;;;8.23;7.10;;;28.40;92.70;;;;;;5024115;28;20026;-55
2022/10/21 03:51:43;;;;;;;10.15;6.57;;;28.40;92.70;;;;;;5024183;28;20022;-53
2022/10/21 03:54:10;;;;;;;6.00;4.68;;;28.40;92.70;;;;;;5023713;28;20034;-51
2022/10/21 03:56:36;;;;;;;9.02;5.32;;;28.30;92.60;;;;;;5023965;28;20026;-51
2022/10/21 03:59:04;;;;;;;11.57;4.53;;;28.30;92.60;;;;;;5024031;28;20348;-53
2022/10/21 04:01:30;;;;;;;10.30;4.13;;;28.30;92.50;;;;;;5023692;28;20034;-55
2022/10/21 04:03:57;;;;;;;8.70;3.70;;;28.30;92.50;;;;;;5023935;28;20033;-50
2022/10/21 04:06:23;;;;;;;8.73;4.25;;;28.30;92.50;;;;;;5023725;28;20037;-53
2022/10/21 04:08:50;;;;;;;7.28;3.50;;;28.30;92.50;;;;;;5023714;28;20029;-51
2022/10/21 04:11:17;;;;;;;6.75;3.28;;;28.30;92.40;;;;;;5054639;28;20022;-54
2022/10/21 04:13:43;;;;;;;6.00;3.38;;;28.30;92.40;;;;;;5023727;28;20030;-53
2022/10/21 04:16:14;;;;;;;4.55;3.03;;;28.30;92.30;;;;;;5023476;28;20077;-49
2022/10/21 04:18:41;;;;;;;5.28;2.80;;;28.30;92.40;;;;;;5024130;28;20057;-50
2022/10/21 04:21:08;;;;;;;6.30;3.30;;;28.30;92.40;;;;;;5023601;28;20030;-50
2022/10/21 04:23:35;;;;;;;8.82;3.17;;;28.20;92.40;;;;;;5023928;28;20314;-53
2022/10/21 04:26:03;;;;;;;5.80;3.08;;;28.20;92.40;;;;;;5023271;28;20046;-52
2022/10/21 04:28:30;;;;;;;5.78;2.88;;;28.20;92.40;;;;;;5024085;28;20026;-59
2022/10/21 04:30:56;;;;;;;7.57;2.83;;;28.20;92.40;;;;;;5023465;28;20061;-51
2022/10/21 04:33:23;;;;;;;3.72;2.42;;;28.20;92.40;;;;;;5023963;28;20194;-56
2022/10/21 04:35:53;;;;;;;6.60;3.00;;;28.20;92.40;;;;;;5023458;28;20029;-52
2022/10/21 04:38:21;;;;;;;7.05;2.92;;;28.20;92.50;;;;;;5023753;28;20076;-51
2022/10/21 04:40:47;;;;;;;4.80;2.67;;;28.20;92.40;;;;;;5023726;28;20113;-50
2022/10/21 04:43:14;;;;;;;9.77;2.50;;;28.20;92.40;;;;;;5023972;28;20065;-52
2022/10/21 04:45:40;;;;;;;7.72;2.75;;;28.20;92.30;;;;;;5021074;28;20033;-52
2022/10/21 04:48:07;;;;;;;8.60;3.03;;;28.20;92.40;;;;;;5027543;28;20033;-56
2022/10/21 04:50:34;;;;;;;5.32;2.78;;;28.10;92.30;;;;;;5027223;28;20249;-55
2022/10/21 04:53:00;;;;;;;8.65;2.80;;;28.10;92.30;;;;;;5026677;28;20053;-58
2022/10/21 04:55:27;;;;;;;6.43;3.05;;;28.10;92.20;;;;;;5026913;28;20026;-58
2022/10/21 04:57:53;;;;;;;8.20;3.22;;;28.10;92.20;;;;;;5027287;28;20178;-54
2022/10/21 05:00:20;;;;;;;10.25;3.40;;;28.10;92.20;;;;;;5026821;28;20037;-52
2022/10/21 05:02:46;;;;;;;11.63;3.40;;;28.10;92.20;;;;;;5027166;28;20097;-53
2022/10/21 05:05:13;;;;;;;8.65;3.78;;;28.10;92.10;;;;;;5026630;28;20045;-54
2022/10/21 05:07:39;;;;;;;7.68;3.47;;;28.10;92.10;;;;;;5026982;28;20333;-52
2022/10/21 05:10:08;;;;;;;10.85;3.97;;;28.10;92.10;;;;;;5026552;28;20365;-54
2022/10/21 05:12:34;;;;;;;11.95;4.05;;;28.10;92.10;;;;;;5026771;28;20041;-52
2022/10/21 05:15:01;;;;;;;13.75;4.40;;;28.10;92.00;;;;;;5026498;28;20032;-53
2022/10/21 05:17:27;;;;;;;12.85;4.78;;;28.00;92.00;;;;;;5026621;28;20029;-54
2022/10/21 05:19:54;;;;;;;10.20;4.60;;;28.10;92.10;;;;;;5026759;28;20034;-56
2022/10/21 05:22:22;;;;;;;12.98;4.53;;;28.00;92.10;;;;;;5026509;28;20061;-52
2022/10/21 05:24:48;;;;;;;16.95;4.88;;;28.00;92.00;;;;;;5026183;28;20093;-52
2022/10/21 05:27:15;;;;;;;14.73;5.07;;;28.00;92.10;;;;;;5026429;28;20057;-52
2022/10/21 05:29:41;;;;;;;14.27;5.20;;;28.00;92.10;;;;;;5026218;28;20018;-52
2022/10/21 05:32:08;;;;;;;17.02;4.35;;;28.00;92.00;;;;;;5026166;28;20064;-55
2022/10/21 05:34:34;;;;;;;11.68;4.40;;;28.00;92.10;;;;;;5026314;28;20022;-54
2022/10/21 05:37:01;;;;;;;11.02;4.43;;;28.00;92.00;;;;;;5026045;28;20301;-55
2022/10/21 05:39:27;;;;;;;9.40;3.97;;;28.00;92.00;;;;;;5026013;28;20367;-61
2022/10/21 05:41:54;;;;;;;8.98;3.92;;;27.90;91.90;;;;;;5026151;28;20022;-55
2022/10/21 05:44:20;;;;;;;10.43;3.58;;;28.00;91.90;;;;;;5026006;28;20033;-54
2022/10/21 05:46:47;;;;;;;8.50;3.85;;;27.90;91.80;;;;;;5025876;28;20034;-53
2022/10/21 05:49:13;;;;;;;8.70;3.80;;;28.00;91.80;;;;;;5025969;28;20254;-52
2022/10/21 05:51:40;;;;;;;7.68;3.75;;;28.00;91.80;;;;;;5025883;28;20030;-56
2022/10/21 05:54:07;;;;;;;11.10;3.53;;;27.90;91.80;;;;;;5025589;28;20025;-60
2022/10/21 05:56:33;;;;;;;9.95;3.80;;;28.00;91.80;;;;;;5025716;28;20057;-60
2022/10/21 05:59:00;;;;;;;10.48;3.70;;;27.90;91.70;;;;;;5025179;28;20053;-58
2022/10/21 06:01:27;;;;;;;11.25;3.90;;;27.90;91.70;;;;;;5025568;28;20044;-53
2022/10/21 06:03:53;;;;;;;10.63;3.78;;;27.90;91.70;;;;;;5025590;28;20068;-55
2022/10/21 06:06:20;;;;;;;10.90;4.07;;;27.90;91.80;;;;;;5025288;28;20033;-51
2022/10/21 06:08:46;;;;;;;9.55;3.67;;;27.90;91.90;;;;;;5025784;28;20072;-56
2022/10/21 06:11:15;;;;;;;9.15;3.88;;;27.90;91.90;;;;;;5025704;28;20030;-53
2022/10/21 06:13:42;;;;;;;12.00;3.90;;;27.90;91.80;;;;;;5025940;28;20026;-53
2022/10/21 06:16:10;;;;;;;12.25;3.97;;;27.90;91.80;;;;;;5025263;28;20025;-56
2022/10/21 06:18:38;;;;;;;12.77;3.90;;;27.90;91.80;;;;;;5025783;28;20306;-54
2022/10/21 06:21:05;;;;;;;12.38;4.07;;;27.90;91.90;;;;;;5025205;28;20226;-54
2022/10/21 06:23:31;;;;;;;10.13;4.43;;;27.80;91.80;;;;;;5025507;28;20038;-54
2022/10/21 06:26:07;;;;;;;9.40;3.60;;;27.80;91.70;;;;;;5024850;28;20057;-53
2022/10/21 06:28:35;;;;;;;7.20;3.03;;;27.80;91.70;;;;;;5025613;28;20033;-54
2022/10/21 06:31:03;;;;;;;12.43;4.10;;;27.80;91.70;;;;;;5024966;28;20053;-53
2022/10/21 06:33:30;;;;;;;9.63;3.53;;;27.80;91.70;;;;;;5025486;28;20029;-55
2022/10/21 06:35:56;;;;;;;11.35;3.47;;;27.80;91.60;;;;;;5025026;28;20026;-54
2022/10/21 06:38:24;;;;;;;10.70;3.63;;;27.80;91.60;;;;;;5025293;28;20041;-54
2022/10/21 06:40:59;;;;;;;9.10;3.67;;;27.80;91.60;;;;;;5024964;28;20022;-54
2022/10/21 06:43:26;;;;;;;9.98;3.80;;;27.80;91.60;;;;;;5025398;28;20384;-54
2022/10/21 06:45:57;;;;;;;10.20;4.05;;;27.80;91.70;;;;;;5024695;28;20119;-54
2022/10/21 06:48:24;;;;;;;10.55;3.90;;;27.80;91.70;;;;;;5025246;28;20049;-55
2022/10/21 06:50:56;;;;;;;9.20;4.03;;;27.80;91.70;;;;;;5024840;28;20207;-55
2022/10/21 06:53:23;;;;;;;7.65;3.42;;;27.70;91.60;;;;;;5025171;28;20029;-59
2022/10/21 06:55:50;;;;;;;10.77;3.45;;;27.70;91.50;;;;;;5024721;28;20034;-62
2022/10/21 06:58:16;;;;;;;10.27;3.55;;;27.70;91.50;;;;;;5023605;28;20036;-57
2022/10/21 07:00:43;;;;;;;6.20;3.13;;;27.70;91.50;;;;;;5024674;28;20026;-52
2022/10/21 07:03:09;;;;;;;11.63;3.78;;;27.70;91.60;;;;;;5025160;28;20036;-57
2022/10/21 07:05:36;;;;;;;9.30;3.28;;;27.70;91.60;;;;;;5024420;28;20029;-58
2022/10/21 07:08:02;;;;;;;8.77;3.22;;;27.70;91.70;;;;;;5024799;28;20108;-61
2022/10/21 07:10:29;;;;;;;9.13;3.08;;;27.70;91.70;;;;;;5023529;28;20372;-56
2022/10/21 07:12:56;;;;;;;12.90;3.67;;;27.70;91.70;;;;;;5024723;28;20313;-62
2022/10/21 07:15:22;;;;;;;10.95;3.55;;;27.70;91.80;;;;;;5024167;28;20034;-59
2022/10/21 07:17:49;;;;;;;10.15;3.50;;;27.60;91.80;;;;;;5024720;28;20033;-61
2022/10/21 07:20:15;;;;;;;9.05;3.13;;;27.60;91.80;;;;;;5024371;28;20073;-60
2022/10/21 07:22:42;;;;;;;11.07;4.30;;;27.60;91.90;;;;;;5024013;28;20026;-55
2022/10/21 07:25:09;;;;;;;15.57;3.88;;;27.60;92.00;;;;;;5024228;28;20026;-54
2022/10/21 07:27:35;;;;;;;10.85;3.70;;;27.60;92.00;;;;;;5024279;28;20052;-55
2022/10/21 07:30:02;;;;;;;11.75;4.00;;;27.60;92.00;;;;;;5023954;28;20018;-58
2022/10/21 07:32:28;;;;;;;9.57;3.22;;;27.50;92.10;;;;;;5024310;28;20038;-52
2022/10/21 07:34:55;;;;;;;6.53;3.15;;;27.50;92.00;;;;;;5024390;28;20049;-55
2022/10/21 07:37:21;;;;;;;10.98;3.60;;;27.50;92.00;;;;;;5024187;28;20034;-54
2022/10/21 07:39:48;;;;;;;9.13;3.72;;;27.50;92.00;;;;;;5024033;28;20030;-54
2022/10/21 07:42:14;;;;;;;6.60;3.08;;;27.50;92.00;;;;;;5024393;28;20022;-53
2022/10/21 07:44:41;;;;;;;9.45;3.00;;;27.50;91.90;;;;;;5023883;28;20199;-54
2022/10/21 07:47:07;;;;;;;8.23;3.30;;;27.50;91.80;;;;;;5023960;28;20034;-53
2022/10/21 07:49:34;;;;;;;9.32;2.90;;;27.40;91.80;;;;;;5024017;28;20053;-53
2022/10/21 07:52:00;;;;;;;9.13;3.40;;;27.40;91.90;;;;;;5023922;28;20030;-53
2022/10/21 07:54:28;;;;;;;7.88;3.20;;;27.40;91.90;;;;;;5024045;28;20310;-51
2022/10/21 07:56:55;;;;;;;8.52;2.95;;;27.40;91.90;;;;;;5024167;28;20065;-54
2022/10/21 07:59:22;;;;;;;8.63;3.13;;;27.40;92.00;;;;;;5023830;28;20318;-52
2022/10/21 08:01:51;;;;;;;8.82;3.40;;;27.40;92.00;;;;;;5023961;28;20037;-52
2022/10/21 08:04:21;;;;;;;9.05;3.20;;;27.40;92.00;;;;;;5023811;28;20034;-55
2022/10/21 08:06:48;;;;;;;7.35;2.70;;;27.40;92.10;;;;;;5023746;28;20182;-54
2022/10/21 08:09:16;;;;;;;9.43;3.42;;;27.40;92.10;;;;;;5023826;28;20030;-56
2022/10/21 08:11:42;;;;;;;8.38;3.60;;;27.40;92.20;;;;;;5023782;28;20049;-55
2022/10/21 08:14:10;;;;;;;10.93;3.63;;;27.30;92.20;;;;;;5023504;28;20026;-53
2022/10/21 08:16:37;;;;;;;12.20;3.22;;;27.30;92.20;;;;;;5023707;28;20045;-56
2022/10/21 08:19:04;;;;;;;8.90;3.38;;;27.30;92.30;;;;;;5023703;28;20026;-55
2022/10/21 08:21:31;;;;;;;5.72;3.08;;;27.30;92.30;;;;;;5025426;28;20031;-53
2022/10/21 08:24:01;;;;;;;8.82;2.90;;;27.30;92.40;;;;;;5027584;28;20036;-54
2022/10/21 08:26:30;;;;;;;8.32;3.25;;;27.30;92.50;;;;;;5027396;28;20215;-53
2022/10/21 08:28:56;;;;;;;9.13;3.00;;;27.30;92.50;;;;;;5027350;28;20120;-54
2022/10/21 08:31:23;;;;;;;7.85;3.20;;;27.30;92.50;;;;;;5027236;28;20214;-60
2022/10/21 08:33:49;;;;;;;6.28;2.83;;;27.30;92.50;;;;;;5027371;28;20022;-61
2022/10/21 08:36:20;;;;;;;8.30;2.83;;;27.30;92.40;;;;;;5027726;28;20040;-54
2022/10/21 08:38:47;;;;;;;9.13;2.85;;;27.30;92.40;;;;;;5027222;28;20029;-59
2022/10/21 08:41:46;;;;;;;5.43;2.70;;;27.20;92.40;;;;;;5027297;28;20025;-59
2022/10/21 08:44:19;;;;;;;7.72;2.60;;;27.30;92.40;;;;;;5027095;28;20045;-61
2022/10/21 08:46:57;;;;;;;6.97;2.80;;;27.20;92.40;;;;;;5027088;28;20033;-60
2022/10/21 08:49:32;;;;;;;7.93;2.88;;;27.20;92.70;;;;;;5027139;28;20151;-52
2022/10/21 08:52:05;;;;;;;7.75;2.90;;;27.20;92.50;;;;;;5027033;28;20285;-53
2022/10/21 08:54:53;;;;;;;6.05;2.10;;;27.20;92.50;;;;;;5027022;28;20029;-59
2022/10/21 08:57:20;;;;;;;7.85;2.60;;;27.20;92.50;;;;;;5027020;28;20030;-59
2022/10/21 08:59:47;;;;;;;5.57;2.50;;;27.20;92.70;;;;;;5027112;28;20030;-64
2022/10/21 09:02:29;;;;;;;8.07;2.35;;;27.10;92.50;;;;;;5027002;28;20033;-55
2022/10/21 09:05:18;;;;;;;8.40;2.78;;;27.20;92.40;;;;;;5026901;28;20034;-53
2022/10/21 09:07:54;;;;;;;5.22;2.75;;;27.10;92.40;;;;;;5026913;28;20041;-59
2022/10/21 09:10:39;;;;;;;7.30;2.35;;;27.10;92.50;;;;;;5026694;28;20025;-57
2022/10/21 09:13:42;;;;;;;5.85;2.20;;;27.10;92.40;;;;;;5026945;28;20360;-50
2022/10/21 09:16:18;;;;;;;6.03;2.75;;;27.10;92.30;;;;;;5026492;28;20049;-53
2022/10/21 09:19:17;;;;;;;6.93;2.47;;;27.10;92.30;;;;;;5026628;28;20029;-53
2022/10/21 09:21:50;;;;;;;6.68;2.65;;;27.10;92.20;;;;;;5026492;28;20050;-57
2022/10/21 09:24:55;;;;;;;9.25;2.45;;;27.10;92.20;;;;;;5026438;28;20029;-59
2022/10/21 09:27:22;;;;;;;8.27;2.63;;;27.10;92.20;;;;;;4993624;28;20050;-54
2022/10/21 09:29:58;;;;;;;7.18;2.78;;;27.10;92.20;;;;;;5026308;28;20072;-54
2022/10/21 09:32:37;;;;;;;3.90;2.40;;;27.10;92.20;;;;;;5025505;28;20332;-50
2022/10/21 09:35:26;;;;;;;3.35;2.10;;;27.10;92.20;;;;;;5026203;28;20238;-53
2022/10/21 09:38:11;;;;;;;9.63;2.20;;;27.00;92.10;;;;;;5026422;28;20105;-58
2022/10/21 09:40:37;;;;;;;6.68;2.40;;;27.10;92.10;;;;;;5026111;28;20072;-59
2022/10/21 09:43:14;;;;;;;5.40;2.42;;;27.10;92.20;;;;;;5020395;28;20038;-54
2022/10/21 09:45:44;;;;;;;6.50;1.98;;;27.10;92.10;;;;;;5006154;28;20029;-54
2022/10/21 09:48:25;;;;;;;5.03;2.17;;;27.10;92.20;;;;;;5006710;28;20033;-56
2022/10/21 09:50:57;;;;;;;4.40;2.10;;;27.10;92.20;;;;;;5006360;28;20038;-52
2022/10/21 09:53:42;;;;;;;5.15;2.13;;;27.10;92.20;;;;;;5006099;28;20036;-52
2022/10/21 09:56:33;;;;;;;5.32;2.10;;;27.10;92.10;;;;;;5007742;28;20034;-48
2022/10/21 09:59:12;;;;;;;3.35;2.08;;;27.00;92.30;;;;;;5023899;28;20100;-51
2022/10/21 10:01:41;;;;;;;6.38;2.10;;;27.00;92.20;;;;;;5025442;28;20109;-54
2022/10/21 10:04:24;;;;;;;4.70;2.22;;;27.00;92.40;;;;;;5025615;28;20144;-53
2022/10/21 10:06:51;;;;;;;4.65;2.10;;;27.00;92.30;;;;;;5025411;28;20037;-55
2022/10/21 10:09:26;;;;;;;4.93;1.90;;;27.00;92.40;;;;;;5025628;28;20025;-53
2022/10/21 10:12:12;;;;;;;5.20;2.10;;;27.00;92.40;;;;;;5025493;28;20030;-53
2022/10/21 10:14:40;;;;;;;6.45;2.20;;;27.00;92.30;;;;;;5025517;28;20093;-54
2022/10/21 10:17:32;;;;;;;4.35;2.42;;;27.00;92.30;;;;;;5025601;28;20040;-53
2022/10/21 10:20:05;;;;;;;7.70;2.40;;;27.00;92.30;;;;;;5025299;28;20026;-55
2022/10/21 10:22:37;;;;;;;6.47;2.20;;;27.00;92.30;;;;;;5025440;28;20049;-53
2022/10/21 10:25:21;;;;;;;8.85;2.50;;;27.00;92.40;;;;;;5025284;28;20280;-59
2022/10/21 10:28:01;;;;;;;11.52;4.43;;;27.00;92.50;;;;;;5025100;28;20054;-54
2022/10/21 10:30:42;;;;;;;7.35;3.35;;;27.00;92.50;;;;;;5025612;28;20030;-55
2022/10/21 10:33:16;;;;;;;7.25;3.25;;;27.00;92.60;;;;;;5025299;28;20036;-50
2022/10/21 10:35:49;;;;;;;9.20;3.33;;;27.00;92.60;;;;;;5025613;28;20220;-52
2022/10/21 10:38:23;;;;;;;12.52;5.20;;;26.90;92.60;;;;;;5024015;28;20033;-53
2022/10/21 10:40:50;;;;;;;69.40;10.70;;;26.90;92.60;;;;;;5023412;28;20218;-55
2022/10/21 10:43:28;;;;;;;24.92;5.75;;;26.90;92.60;;;;;;5022975;28;20226;-53
2022/10/21 10:45:58;;;;;;;13.05;5.15;;;26.90;92.60;;;;;;5024061;28;20036;-53
2022/10/21 10:48:39;;;;;;;17.23;4.50;;;26.90;92.60;;;;;;5024513;28;20026;-54
2022/10/21 10:51:07;;;;;;;13.00;4.00;;;26.90;92.60;;;;;;5024689;28;20076;-55
2022/10/21 10:53:35;;;;;;;9.48;3.47;;;26.90;92.60;;;;;;5023872;28;20034;-51
2022/10/21 10:56:23;;;;;;;9.75;3.38;;;26.90;92.50;;;;;;5024732;28;20384;-52
2022/10/21 10:58:56;;;;;;;10.02;5.13;;;26.90;92.50;;;;;;5024244;28;20041;-55
2022/10/21 11:01:32;;;;;;;10.90;5.20;;;26.90;92.50;;;;;;5024453;28;20071;-55
2022/10/21 11:04:10;;;;;;;11.35;5.18;;;26.90;92.50;;;;;;5018539;28;20041;-56
2022/10/21 11:07:04;;;;;;;13.18;4.43;;;26.90;92.60;;;;;;5016784;28;20289;-55
2022/10/21 11:09:33;;;;;;;17.35;6.65;;;26.90;92.60;;;;;;5018315;28;20041;-57
2022/10/21 11:12:04;;;;;;;15.35;7.60;;;26.90;92.70;;;;;;5024219;28;20018;-57
2022/10/21 11:14:31;;;;;;;12.57;5.57;;;26.90;92.80;;;;;;5023327;28;20029;-61
2022/10/21 11:17:11;;;;;;;11.35;5.00;;;26.90;93.00;;;;;;5023258;28;20045;-57
2022/10/21 11:19:37;;;;;;;10.23;4.50;;;26.90;93.00;;;;;;5021575;28;20044;-57
2022/10/21 11:22:35;;;;;;;11.20;4.35;;;26.90;93.10;;;;;;5023164;28;20025;-54
2022/10/21 11:25:10;;;;;;;9.00;3.53;;;26.90;93.20;;;;;;5022025;28;20117;-59
2022/10/21 11:27:43;;;;;;;11.32;4.10;;;26.90;93.20;;;;;;5019641;28;20052;-55
2022/10/21 11:30:16;;;;;;;7.18;3.55;;;27.00;93.30;;;;;;5024493;28;20042;-53
2022/10/21 11:32:58;;;;;;;9.02;4.05;;;27.00;93.30;;;;;;5023253;28;20034;-54
2022/10/21 11:35:46;;;;;;;9.30;3.80;;;27.00;93.20;;;;;;5024636;28;20280;-54
2022/10/21 11:38:15;;;;;;;9.02;3.35;;;27.10;93.10;;;;;;5023594;28;20232;-55
2022/10/21 11:40:48;;;;;;;8.75;3.38;;;27.10;93.10;;;;;;5024004;28;20037;-55
2022/10/21 11:43:26;;;;;;;6.35;3.10;;;27.10;93.00;;;;;;5024015;28;20025;-55
2022/10/21 11:46:11;;;;;;;4.45;3.13;;;27.10;92.90;;;;;;5023352;28;20048;-55
2022/10/21 11:48:41;;;;;;;5.88;2.63;;;27.20;92.80;;;;;;5022195;28;20029;-60
2022/10/21 11:51:36;;;;;;;5.80;3.13;;;27.20;92.80;;;;;;5022543;28;20265;-56
2022/10/21 11:54:40;;;;;;;7.38;2.90;;;27.20;92.90;;;;;;5007261;28;20046;-57
2022/10/21 11:57:20;;;;;;;4.55;2.47;;;27.30;92.80;;;;;;5025587;28;20391;-56
2022/10/21 12:00:15;;;;;;;6.18;2.40;;;27.30;92.80;;;;;;5026735;28;20217;-57
2022/10/21 12:03:04;;;;;;;6.97;2.50;;;27.30;93.00;;;;;;5028133;28;20234;-61
2022/10/21 12:05:48;;;;;;;6.15;2.63;;;27.30;92.70;;;;;;5028177;28;20033;-61
2022/10/21 12:08:32;;;;;;;4.25;2.13;;;27.40;92.80;;;;;;5027155;28;20396;-61
2022/10/21 12:11:08;;;;;;;4.10;2.40;;;27.40;92.80;;;;;;5026939;28;20273;-61
2022/10/21 12:13:38;;;;;;;6.60;2.55;;;27.40;92.80;;;;;;5027652;28;20032;-55
2022/10/21 12:16:09;;;;;;;3.92;2.10;;;27.50;92.80;;;;;;5027978;28;20029;-54
2022/10/21 12:18:57;;;;;;;4.10;2.25;;;27.50;92.80;;;;;;5027686;28;20056;-54
2022/10/21 12:21:29;;;;;;;4.32;2.40;;;27.50;92.70;;;;;;5027513;28;20333;-59
2022/10/21 12:24:24;;;;;;;5.45;2.13;;;27.60;92.80;;;;;;5027607;28;20037;-60
2022/10/21 12:27:12;;;;;;;4.97;2.00;;;27.60;92.70;;;;;;5020304;28;20080;-62
2022/10/21 12:30:14;;;;;;;4.60;2.53;;;27.60;92.70;;;;;;5027801;28;20042;-62
2022/10/21 12:33:02;;;;;;;4.55;2.50;;;27.60;92.70;;;;;;5027321;28;20030;-62
2022/10/21 12:35:40;;;;;;;5.30;2.42;;;27.60;92.70;;;;;;5028035;28;20038;-58
2022/10/21 12:38:20;;;;;;;6.10;2.35;;;27.70;92.70;;;;;;5027208;28;20098;-60
2022/10/21 12:40:48;;;;;;;6.75;2.65;;;27.70;92.70;;;;;;5027145;28;20038;-62
2022/10/21 12:43:22;;;;;;;5.80;2.30;;;27.70;92.70;;;;;;5027306;28;20093;-61
2022/10/21 12:46:09;;;;;;;11.23;2.60;;;27.80;92.80;;;;;;5026887;28;20199;-54
2022/10/21 12:48:45;;;;;;;6.32;2.40;;;27.80;92.80;;;;;;5027149;28;20080;-56
2022/10/21 12:51:28;;;;;;;6.85;2.53;;;27.80;92.80;;;;;;5027039;28;20245;-55
2022/10/21 12:54:11;;;;;;;4.43;2.40;;;27.80;92.80;;;;;;5027127;28;20206;-53
2022/10/21 12:57:00;;;;;;;5.05;2.33;;;27.80;92.90;;;;;;5026993;28;20022;-57
2022/10/21 12:59:34;;;;;;;5.57;2.67;;;27.80;92.90;;;;;;5027071;28;20076;-58
2022/10/21 13:02:09;;;;;;;6.72;2.65;;;27.80;92.90;;;;;;5026999;28;20026;-56
2022/10/21 13:04:35;;;;;;;4.35;2.65;;;27.90;92.90;;;;;;5026907;28;20061;-57
2022/10/21 13:07:04;;;;;;;5.20;2.80;;;27.90;92.90;;;;;;5026674;28;20089;-54
2022/10/21 13:09:36;;;;;;;6.47;2.45;;;27.90;92.90;;;;;;5027105;28;20029;-60